createdAt,value
2018-12-01T00:00:38.267Z,4.33
2018-12-01T00:03:10.665Z,5.00
2018-12-01T00:05:39.229Z,3.80
2018-12-01T00:08:12.191Z,4.13
2018-12-01T00:10:40.710Z,3.90
2018-12-01T00:13:09.305Z,3.93
2018-12-01T00:15:37.943Z,4.23
2018-12-01T00:18:06.566Z,4.20
2018-12-01T00:20:36.986Z,4.23
2018-12-01T00:23:09.278Z,4.43
2018-12-01T00:25:37.909Z,3.90
2018-12-01T00:28:08.529Z,4.10
2018-12-01T00:30:37.136Z,4.70
2018-12-01T00:33:05.815Z,4.87
2018-12-01T00:35:35.377Z,4.33
2018-12-01T00:38:04.053Z,4.20
2018-12-01T00:40:32.684Z,5.10
2018-12-01T00:43:01.323Z,3.90
2018-12-01T00:45:30.927Z,4.13
2018-12-01T00:47:59.465Z,4.37
2018-12-01T00:50:28.372Z,4.07
2018-12-01T00:52:57.960Z,3.93
2018-12-01T00:55:28.602Z,3.67
2018-12-01T00:57:57.285Z,4.37
2018-12-01T01:00:26.619Z,4.50
2018-12-01T01:02:57.832Z,4.20
2018-12-01T01:05:28.276Z,4.40
2018-12-01T01:07:57.444Z,4.70
2018-12-01T01:10:32.105Z,4.20
2018-12-01T01:13:01.677Z,3.80
2018-12-01T01:15:30.227Z,4.03
2018-12-01T01:17:59.789Z,4.20
2018-12-01T01:20:28.363Z,3.50
2018-12-01T01:22:57.013Z,4.37
2018-12-01T01:25:25.585Z,4.07
2018-12-01T01:27:54.828Z,5.30
2018-12-01T01:30:23.967Z,3.43
2018-12-01T01:33:03.349Z,3.67
2018-12-01T01:35:31.945Z,3.80
2018-12-01T01:38:01.607Z,3.80
2018-12-01T01:40:30.151Z,3.97
2018-12-01T01:43:03.548Z,3.90
2018-12-01T01:45:32.181Z,3.67
2018-12-01T01:48:02.761Z,4.00
2018-12-01T01:50:32.371Z,4.80
2018-12-01T01:53:00.881Z,4.20
2018-12-01T01:55:30.473Z,4.00
2018-12-01T01:57:59.081Z,4.30
2018-12-01T02:00:29.725Z,4.13
2018-12-01T02:02:59.286Z,5.13
2018-12-01T02:05:31.836Z,4.13
2018-12-01T02:08:01.403Z,4.43
2018-12-01T02:10:30.005Z,4.33
2018-12-01T02:12:58.559Z,4.60
2018-12-01T02:15:28.070Z,4.43
2018-12-01T02:17:56.699Z,4.43
2018-12-01T02:20:25.317Z,4.70
2018-12-01T02:22:54.918Z,4.27
2018-12-01T02:25:23.482Z,3.93
2018-12-01T02:27:52.089Z,4.50
2018-12-01T02:30:21.199Z,4.40
2018-12-01T02:32:49.974Z,4.40
2018-12-01T02:35:27.308Z,3.97
2018-12-01T02:37:56.001Z,4.40
2018-12-01T02:40:24.621Z,4.20
2018-12-01T02:42:53.350Z,4.07
2018-12-01T02:45:33.064Z,4.37
2018-12-01T02:48:01.648Z,4.10
2018-12-01T02:50:30.419Z,4.23
2018-12-01T02:52:59.774Z,4.00
2018-12-01T02:55:28.667Z,4.33
2018-12-01T02:58:14.360Z,3.83
2018-12-01T03:00:43.922Z,4.40
2018-12-01T03:03:12.527Z,4.43
2018-12-01T03:05:43.165Z,4.10
2018-12-01T03:08:12.749Z,4.13
2018-12-01T03:10:45.657Z,4.17
2018-12-01T03:13:15.315Z,4.03
2018-12-01T03:15:44.896Z,5.10
2018-12-01T03:18:16.989Z,4.50
2018-12-01T03:20:48.644Z,4.87
2018-12-01T03:23:17.270Z,4.27
2018-12-01T03:25:45.952Z,4.07
2018-12-01T03:28:14.512Z,4.10
2018-12-01T03:30:43.179Z,4.23
2018-12-01T03:33:15.201Z,3.93
2018-12-01T03:35:43.782Z,4.30
2018-12-01T03:38:13.318Z,4.77
2018-12-01T03:40:47.845Z,4.40
2018-12-01T03:43:16.522Z,4.70
2018-12-01T03:45:47.111Z,4.67
2018-12-01T03:48:15.695Z,4.53
2018-12-01T03:50:44.276Z,4.13
2018-12-01T03:53:13.162Z,4.23
2018-12-01T03:55:41.693Z,4.20
2018-12-01T03:58:10.262Z,4.47
2018-12-01T04:00:40.869Z,4.37
2018-12-01T04:03:09.466Z,4.03
2018-12-01T04:05:40.121Z,4.60
2018-12-01T04:08:08.628Z,4.53
2018-12-01T04:10:37.145Z,5.40
2018-12-01T04:13:11.761Z,3.60
2018-12-01T04:18:16.609Z,4.43
2018-12-01T04:20:45.157Z,3.73
2018-12-01T04:23:14.714Z,4.37
2018-12-01T04:25:43.287Z,4.33
2018-12-01T04:28:12.410Z,3.90
2018-12-01T04:30:40.996Z,4.13
2018-12-01T04:33:09.573Z,3.90
2018-12-01T04:35:39.234Z,3.73
2018-12-01T04:38:09.916Z,3.60
2018-12-01T04:40:38.440Z,4.20
2018-12-01T04:43:07.164Z,4.80
2018-12-01T04:45:35.717Z,4.10
2018-12-01T04:48:08.857Z,4.37
2018-12-01T04:50:37.429Z,4.07
2018-12-01T04:53:07.571Z,4.43
2018-12-01T04:55:37.198Z,4.00
2018-12-01T04:58:06.138Z,3.93
2018-12-01T05:00:34.681Z,4.50
2018-12-01T05:03:03.340Z,3.90
2018-12-01T05:05:32.918Z,4.37
2018-12-01T05:08:03.570Z,4.13
2018-12-01T05:10:32.177Z,4.40
2018-12-01T05:13:00.767Z,4.67
2018-12-01T05:15:30.332Z,4.60
2018-12-01T05:17:58.987Z,4.80
2018-12-01T05:20:29.669Z,4.27
2018-12-01T05:22:58.227Z,4.50
2018-12-01T05:25:28.985Z,4.20
2018-12-01T05:27:57.614Z,4.40
2018-12-01T05:30:26.283Z,5.10
2018-12-01T05:32:54.819Z,4.80
2018-12-01T05:35:24.593Z,5.27
2018-12-01T05:37:53.177Z,5.00
2018-12-01T05:40:22.976Z,4.63
2018-12-01T05:42:57.499Z,5.33
2018-12-01T05:45:26.150Z,5.07
2018-12-01T05:47:56.800Z,4.17
2018-12-01T05:50:26.099Z,6.30
2018-12-01T05:52:55.669Z,5.30
2018-12-01T05:55:24.219Z,5.50
2018-12-01T05:57:58.126Z,4.63
2018-12-01T06:00:30.751Z,5.10
2018-12-01T06:02:59.386Z,5.80
2018-12-01T06:05:27.973Z,6.37
2018-12-01T06:07:57.670Z,5.13
2018-12-01T06:10:26.292Z,5.67
2018-12-01T06:12:58.332Z,5.03
2018-12-01T06:15:27.946Z,4.60
2018-12-01T06:17:56.695Z,4.87
2018-12-01T06:20:27.276Z,4.87
2018-12-01T06:22:56.974Z,4.57
2018-12-01T06:25:25.611Z,5.40
2018-12-01T06:27:57.345Z,4.57
2018-12-01T06:30:25.923Z,5.57
2018-12-01T06:32:54.511Z,5.53
2018-12-01T06:35:25.062Z,5.53
2018-12-01T06:37:53.677Z,5.87
2018-12-01T06:40:24.258Z,4.77
2018-12-01T06:42:56.290Z,5.50
2018-12-01T06:45:24.896Z,4.97
2018-12-01T06:47:57.611Z,5.33
2018-12-01T06:50:26.186Z,5.13
2018-12-01T06:52:54.756Z,5.37
2018-12-01T06:55:23.856Z,5.20
2018-12-01T06:57:52.535Z,5.17
2018-12-01T07:00:26.344Z,5.57
2018-12-01T07:02:57.152Z,7.67
2018-12-01T07:05:25.740Z,6.50
2018-12-01T07:07:54.341Z,6.03
2018-12-01T07:10:23.523Z,5.53
2018-12-01T07:12:55.538Z,5.70
2018-12-01T07:15:33.029Z,5.83
2018-12-01T07:18:13.710Z,7.00
2018-12-01T07:20:42.241Z,5.60
2018-12-01T07:23:11.804Z,6.07
2018-12-01T07:25:42.393Z,14.63
2018-12-01T07:28:10.994Z,5.27
2018-12-01T07:30:39.765Z,4.77
2018-12-01T07:33:26.374Z,5.10
2018-12-01T07:35:58.240Z,4.53
2018-12-01T07:38:29.978Z,5.53
2018-12-01T07:40:58.637Z,5.57
2018-12-01T07:43:29.274Z,4.80
2018-12-01T07:46:02.021Z,4.70
2018-12-01T07:48:30.540Z,5.00
2018-12-01T07:51:02.870Z,5.10
2018-12-01T07:53:32.497Z,4.57
2018-12-01T07:56:03.148Z,4.97
2018-12-01T07:58:35.658Z,4.67
2018-12-01T08:01:04.258Z,3.97
2018-12-01T08:03:33.810Z,4.63
2018-12-01T08:06:02.493Z,10.90
2018-12-01T08:08:31.129Z,4.47
2018-12-01T08:11:12.393Z,4.53
2018-12-01T08:13:42.926Z,4.23
2018-12-01T08:16:11.517Z,4.10
2018-12-01T08:18:41.191Z,4.93
2018-12-01T08:21:11.931Z,4.57
2018-12-01T08:23:40.492Z,4.00
2018-12-01T08:26:11.096Z,4.60
2018-12-01T08:28:39.573Z,4.00
2018-12-01T08:31:24.870Z,4.10
2018-12-01T08:33:53.423Z,3.97
2018-12-01T08:36:22.040Z,4.20
2018-12-01T08:38:51.653Z,3.80
2018-12-01T08:41:21.278Z,3.80
2018-12-01T08:43:49.849Z,4.37
2018-12-01T08:46:21.745Z,3.73
2018-12-01T08:48:52.249Z,5.13
2018-12-01T08:51:21.182Z,4.10
2018-12-01T08:53:50.961Z,4.03
2018-12-01T08:56:20.655Z,3.67
2018-12-01T08:58:49.323Z,3.80
2018-12-01T09:01:18.992Z,4.20
2018-12-01T09:03:48.563Z,4.47
2018-12-01T09:06:21.110Z,16.63
2018-12-01T09:08:49.788Z,4.40
2018-12-01T09:11:19.460Z,4.43
2018-12-01T09:13:49.149Z,4.43
2018-12-01T09:16:17.702Z,4.97
2018-12-01T09:18:56.562Z,4.33
2018-12-01T09:21:25.300Z,3.93
2018-12-01T09:23:57.206Z,3.70
2018-12-01T09:26:25.938Z,5.13
2018-12-01T09:28:56.785Z,3.93
2018-12-01T09:31:25.502Z,4.23
2018-12-01T09:33:55.279Z,4.00
2018-12-01T09:36:25.166Z,4.10
2018-12-01T09:38:54.776Z,3.97
2018-12-01T09:41:25.401Z,4.30
2018-12-01T09:43:56.923Z,4.50
2018-12-01T09:46:27.833Z,3.97
2018-12-01T09:48:58.473Z,4.20
2018-12-01T09:51:27.065Z,4.03
2018-12-01T09:53:56.925Z,3.90
2018-12-01T09:56:29.055Z,4.60
2018-12-01T09:58:57.633Z,4.00
2018-12-01T10:01:26.335Z,3.90
2018-12-01T10:03:57.271Z,4.17
2018-12-01T10:06:25.876Z,4.43
2018-12-01T10:09:06.632Z,4.93
2018-12-01T10:11:36.394Z,4.50
2018-12-01T10:14:05.343Z,4.27
2018-12-01T10:16:34.889Z,4.13
2018-12-01T10:19:04.812Z,3.90
2018-12-01T10:21:35.272Z,4.30
2018-12-01T10:24:07.894Z,3.70
2018-12-01T10:26:37.071Z,4.07
2018-12-01T10:29:05.681Z,4.50
2018-12-01T10:31:34.292Z,5.00
2018-12-01T10:34:03.940Z,4.03
2018-12-01T10:36:33.556Z,4.90
2018-12-01T10:39:09.523Z,4.43
2018-12-01T10:41:38.189Z,4.67
2018-12-01T10:44:07.742Z,4.30
2018-12-01T10:46:37.369Z,4.37
2018-12-01T10:49:11.090Z,4.23
2018-12-01T10:51:40.673Z,4.60
2018-12-01T10:54:09.200Z,4.23
2018-12-01T10:56:39.819Z,4.67
2018-12-01T10:59:08.470Z,4.33
2018-12-01T11:01:44.442Z,4.67
2018-12-01T11:04:18.330Z,4.37
2018-12-01T11:06:46.931Z,6.10
2018-12-01T11:09:15.777Z,4.20
2018-12-01T11:11:45.645Z,4.60
2018-12-01T11:14:16.913Z,4.60
2018-12-01T11:16:46.486Z,4.43
2018-12-01T11:19:15.134Z,3.87
2018-12-01T11:21:45.752Z,4.10
2018-12-01T11:24:14.353Z,3.50
2018-12-01T11:26:42.969Z,3.47
2018-12-01T11:29:12.626Z,4.17
2018-12-01T11:31:41.307Z,4.00
2018-12-01T11:34:13.337Z,4.73
2018-12-01T11:36:43.112Z,3.83
2018-12-01T11:39:13.691Z,4.43
2018-12-01T11:41:42.286Z,3.57
2018-12-01T11:44:10.845Z,4.10
2018-12-01T11:46:39.462Z,3.70
2018-12-01T11:49:11.343Z,3.53
2018-12-01T11:51:40.985Z,3.47
2018-12-01T11:54:09.593Z,3.60
2018-12-01T11:56:39.186Z,3.50
2018-12-01T11:59:07.773Z,3.67
2018-12-01T12:01:36.481Z,3.87
2018-12-01T12:04:05.619Z,3.00
2018-12-01T12:06:34.317Z,3.47
2018-12-01T12:09:03.008Z,3.17
2018-12-01T12:11:31.570Z,3.40
2018-12-01T12:14:00.296Z,3.30
2018-12-01T12:16:30.970Z,3.60
2018-12-01T12:18:59.591Z,3.30
2018-12-01T12:21:28.259Z,3.30
2018-12-01T12:23:57.906Z,3.30
2018-12-01T12:26:26.522Z,3.00
2018-12-01T12:28:55.179Z,3.03
2018-12-01T12:31:27.626Z,3.27
2018-12-01T12:33:57.289Z,3.00
2018-12-01T12:36:26.941Z,2.90
2018-12-01T12:38:55.544Z,3.20
2018-12-01T12:41:25.068Z,2.70
2018-12-01T12:43:53.657Z,3.07
2018-12-01T12:46:24.374Z,3.07
2018-12-01T12:48:52.917Z,3.07
2018-12-01T12:51:21.522Z,2.90
2018-12-01T12:53:50.204Z,2.60
2018-12-01T12:56:19.833Z,3.00
2018-12-01T12:58:48.450Z,3.20
2018-12-01T13:01:19.098Z,2.53
2018-12-01T13:03:47.636Z,2.90
2018-12-01T13:06:17.315Z,2.70
2018-12-01T13:08:47.391Z,3.43
2018-12-01T13:11:16.014Z,2.47
2018-12-01T13:13:46.683Z,3.87
2018-12-01T13:16:15.361Z,3.00
2018-12-01T13:18:44.022Z,2.57
2018-12-01T13:21:12.696Z,2.50
2018-12-01T13:23:41.234Z,2.50
2018-12-01T13:26:11.873Z,2.80
2018-12-01T13:28:40.529Z,2.27
2018-12-01T13:31:13.005Z,2.57
2018-12-01T13:33:46.628Z,2.30
2018-12-01T13:36:15.774Z,2.23
2018-12-01T13:38:44.422Z,2.13
2018-12-01T13:41:13.094Z,2.30
2018-12-01T13:43:43.192Z,2.27
2018-12-01T13:46:11.779Z,2.57
2018-12-01T13:48:41.430Z,2.47
2018-12-01T13:51:10.066Z,2.20
2018-12-01T13:53:38.599Z,2.50
2018-12-01T13:56:07.472Z,2.20
2018-12-01T13:58:37.339Z,2.70
2018-12-01T14:01:06.958Z,1.93
2018-12-01T14:03:40.786Z,2.10
2018-12-01T14:06:09.437Z,2.00
2018-12-01T14:08:40.084Z,2.67
2018-12-01T14:11:08.797Z,2.23
2018-12-01T14:13:37.368Z,2.10
2018-12-01T14:16:06.019Z,2.10
2018-12-01T14:18:34.724Z,2.07
2018-12-01T14:21:03.375Z,2.37
2018-12-01T14:23:35.700Z,2.50
2018-12-01T14:26:04.502Z,2.33
2018-12-01T14:28:35.192Z,2.80
2018-12-01T14:31:03.834Z,2.80
2018-12-01T14:33:34.461Z,2.50
2018-12-01T14:36:04.054Z,3.07
2018-12-01T14:38:32.570Z,2.30
2018-12-01T14:41:01.124Z,2.13
2018-12-01T14:43:29.749Z,3.87
2018-12-01T14:45:58.315Z,2.07
2018-12-01T14:48:27.925Z,2.20
2018-12-01T14:50:57.590Z,1.90
2018-12-01T14:53:27.212Z,1.90
2018-12-01T14:55:55.842Z,2.43
2018-12-01T14:58:25.453Z,2.27
2018-12-01T15:00:56.043Z,2.10
2018-12-01T15:03:25.872Z,1.73
2018-12-01T15:05:53.774Z,2.00
2018-12-01T15:08:23.385Z,2.40
2018-12-01T15:10:51.918Z,2.20
2018-12-01T15:13:20.572Z,1.90
2018-12-01T15:15:51.191Z,2.00
2018-12-01T15:18:19.745Z,1.90
2018-12-01T15:20:48.266Z,1.83
2018-12-01T15:23:17.216Z,2.00
2018-12-01T15:25:45.757Z,2.20
2018-12-01T15:28:16.423Z,2.03
2018-12-01T15:30:45.032Z,2.00
2018-12-01T15:33:16.365Z,2.13
2018-12-01T15:35:47.272Z,2.10
2018-12-01T15:38:16.940Z,2.00
2018-12-01T15:40:49.901Z,2.10
2018-12-01T15:43:20.008Z,1.90
2018-12-01T15:45:48.675Z,2.00
2018-12-01T15:48:17.368Z,2.17
2018-12-01T15:50:52.535Z,2.33
2018-12-01T15:53:22.598Z,2.30
2018-12-01T15:55:55.456Z,2.30
2018-12-01T15:58:24.082Z,2.13
2018-12-01T16:00:52.904Z,1.70
2018-12-01T16:03:21.589Z,2.00
2018-12-01T16:05:51.419Z,2.00
2018-12-01T16:08:21.026Z,2.20
2018-12-01T16:10:49.591Z,2.00
2018-12-01T16:13:20.808Z,2.20
2018-12-01T16:15:57.271Z,2.20
2018-12-01T16:18:27.518Z,2.20
2018-12-01T16:20:57.520Z,2.50
2018-12-01T16:23:26.120Z,2.67
2018-12-01T16:25:55.780Z,2.00
2018-12-01T16:28:24.366Z,2.33
2018-12-01T16:30:52.996Z,2.63
2018-12-01T16:33:21.892Z,2.20
2018-12-01T16:35:52.244Z,2.60
2018-12-01T16:38:23.697Z,2.20
2018-12-01T16:40:56.407Z,2.87
2018-12-01T16:43:31.427Z,3.40
2018-12-01T16:46:00.965Z,2.80
2018-12-01T16:48:29.555Z,2.50
2018-12-01T16:50:59.109Z,3.37
2018-12-01T16:53:31.282Z,2.77
2018-12-01T16:55:59.983Z,2.90
2018-12-01T16:58:28.587Z,3.00
2018-12-01T17:00:58.225Z,3.20
2018-12-01T17:03:27.016Z,3.20
2018-12-01T17:05:58.450Z,4.20
2018-12-01T17:08:27.303Z,3.10
2018-12-01T17:11:01.526Z,3.40
2018-12-01T17:13:31.188Z,4.40
2018-12-01T17:15:59.848Z,3.67
2018-12-01T17:18:30.476Z,3.63
2018-12-01T17:20:59.138Z,3.80
2018-12-01T17:23:29.704Z,3.30
2018-12-01T17:25:59.310Z,3.43
2018-12-01T17:28:29.865Z,3.50
2018-12-01T17:30:59.462Z,3.10
2018-12-01T17:33:28.086Z,3.00
2018-12-01T17:35:56.669Z,3.43
2018-12-01T17:38:25.337Z,2.57
2018-12-01T17:41:08.601Z,3.33
2018-12-01T17:43:47.003Z,2.90
2018-12-01T17:46:15.661Z,2.30
2018-12-01T17:48:44.311Z,3.50
2018-12-01T17:51:13.857Z,2.57
2018-12-01T17:53:44.025Z,2.90
2018-12-01T17:56:12.601Z,2.80
2018-12-01T17:58:53.233Z,2.33
2018-12-01T18:01:21.806Z,2.57
2018-12-01T18:03:53.999Z,2.40
2018-12-01T18:06:23.527Z,2.17
2018-12-01T18:08:52.217Z,2.20
2018-12-01T18:11:29.499Z,2.30
2018-12-01T18:14:00.361Z,2.20
2018-12-01T18:16:28.862Z,2.50
2018-12-01T18:18:57.473Z,2.20
2018-12-01T18:21:26.200Z,2.37
2018-12-01T18:23:54.746Z,2.60
2018-12-01T18:26:28.564Z,2.10
2018-12-01T18:28:57.289Z,2.00
2018-12-01T18:31:27.397Z,2.20
2018-12-01T18:34:01.537Z,2.10
2018-12-01T18:36:30.182Z,3.93
2018-12-01T18:38:59.724Z,2.77
2018-12-01T18:41:28.309Z,2.60
2018-12-01T18:43:57.116Z,2.37
2018-12-01T18:46:26.728Z,2.20
2018-12-01T18:48:56.550Z,2.40
2018-12-01T18:51:26.152Z,4.37
2018-12-01T18:53:59.160Z,3.27
2018-12-01T18:56:27.738Z,3.10
2018-12-01T18:58:56.373Z,2.57
2018-12-01T19:01:25.980Z,2.40
2018-12-01T19:03:54.524Z,2.53
2018-12-01T19:06:23.189Z,2.30
2018-12-01T19:08:51.717Z,2.40
2018-12-01T19:11:22.309Z,2.37
2018-12-01T19:13:51.897Z,2.33
2018-12-01T19:16:20.561Z,2.60
2018-12-01T19:18:50.079Z,2.70
2018-12-01T19:21:19.649Z,2.60
2018-12-01T19:23:48.195Z,2.93
2018-12-01T19:26:16.799Z,2.20
2018-12-01T19:28:45.384Z,2.87
2018-12-01T19:31:14.026Z,2.20
2018-12-01T19:33:46.476Z,2.50
2018-12-01T19:36:15.247Z,2.50
2018-12-01T19:38:43.803Z,2.10
2018-12-01T19:41:13.381Z,3.10
2018-12-01T19:43:55.746Z,3.37
2018-12-01T19:46:24.899Z,7.23
2018-12-01T19:48:54.148Z,2.20
2018-12-01T19:51:23.620Z,2.60
2018-12-01T19:53:57.873Z,2.10
2018-12-01T19:56:26.549Z,2.40
2018-12-01T19:58:55.033Z,2.73
2018-12-01T20:01:23.555Z,2.40
2018-12-01T20:03:52.189Z,2.67
2018-12-01T20:06:21.755Z,2.43
2018-12-01T20:08:55.221Z,3.40
2018-12-01T20:11:23.762Z,4.40
2018-12-01T20:13:53.279Z,3.27
2018-12-01T20:16:36.948Z,2.80
2018-12-01T20:19:06.641Z,3.00
2018-12-01T20:21:37.365Z,3.03
2018-12-01T20:24:08.127Z,4.20
2018-12-01T20:26:37.460Z,3.00
2018-12-01T20:29:09.113Z,3.33
2018-12-01T20:31:39.758Z,2.77
2018-12-01T20:34:08.517Z,2.77
2018-12-01T20:36:48.346Z,2.83
2018-12-01T20:39:26.324Z,2.77
2018-12-01T20:41:57.161Z,2.50
2018-12-01T20:44:27.825Z,2.97
2018-12-01T20:46:57.435Z,2.67
2018-12-01T20:49:27.010Z,3.10
2018-12-01T20:51:55.649Z,3.03
2018-12-01T20:54:36.817Z,2.83
2018-12-01T20:57:14.078Z,3.03
2018-12-01T20:59:42.589Z,2.87
2018-12-01T21:02:15.313Z,3.07
2018-12-01T21:04:43.876Z,2.80
2018-12-01T21:07:18.466Z,3.00
2018-12-01T21:09:48.109Z,2.73
2018-12-01T21:12:18.888Z,4.20
2018-12-01T21:14:48.400Z,3.23
2018-12-01T21:17:17.073Z,3.03
2018-12-01T21:19:47.705Z,3.40
2018-12-01T21:22:16.280Z,3.50
2018-12-01T21:24:48.222Z,4.10
2018-12-01T21:27:22.622Z,3.33
2018-12-01T21:29:51.136Z,3.77
2018-12-01T21:32:19.837Z,3.07
2018-12-01T21:34:51.927Z,3.40
2018-12-01T21:37:20.504Z,3.30
2018-12-01T21:39:56.466Z,2.80
2018-12-01T21:42:25.411Z,3.00
2018-12-01T21:44:56.069Z,3.40
2018-12-01T21:47:25.722Z,3.03
2018-12-01T21:49:54.273Z,3.20
2018-12-01T21:52:22.866Z,3.47
2018-12-01T21:54:51.491Z,3.10
2018-12-01T21:57:22.152Z,3.37
2018-12-01T21:59:50.724Z,3.33
2018-12-01T22:02:19.349Z,3.20
2018-12-01T22:04:48.008Z,3.27
2018-12-01T22:07:16.573Z,3.30
2018-12-01T22:09:47.159Z,3.40
2018-12-01T22:12:15.746Z,2.90
2018-12-01T22:14:44.403Z,3.20
2018-12-01T22:17:13.940Z,3.30
2018-12-01T22:19:44.623Z,3.20
2018-12-01T22:22:15.454Z,3.17
2018-12-01T22:24:42.854Z,3.53
2018-12-01T22:27:12.409Z,3.10
2018-12-01T22:29:43.064Z,2.87
2018-12-01T22:32:17.605Z,2.50
2018-12-01T22:34:48.308Z,3.50
2018-12-01T22:37:16.860Z,2.77
2018-12-01T22:39:45.518Z,2.80
2018-12-01T22:42:17.696Z,3.30
2018-12-01T22:44:49.588Z,2.50
2018-12-01T22:47:19.112Z,3.10
2018-12-01T22:49:57.662Z,3.10
2018-12-01T22:52:27.301Z,2.90
2018-12-01T22:54:59.669Z,3.00
2018-12-01T22:57:35.724Z,2.60
2018-12-01T23:00:17.542Z,2.50
2018-12-01T23:02:47.186Z,2.67
2018-12-01T23:05:16.982Z,2.93
2018-12-01T23:07:44.393Z,2.57
2018-12-01T23:10:17.314Z,2.60
2018-12-01T23:12:46.745Z,2.70
2018-12-01T23:15:18.491Z,2.80
2018-12-01T23:17:48.554Z,2.70
2018-12-01T23:20:21.301Z,2.63
2018-12-01T23:22:55.925Z,2.47
2018-12-01T23:25:24.434Z,2.40
2018-12-01T23:27:54.011Z,2.50
2018-12-01T23:30:27.536Z,2.63
2018-12-01T23:33:02.625Z,2.53
2018-12-01T23:35:31.637Z,2.47
2018-12-01T23:38:00.260Z,2.47
2018-12-01T23:40:28.845Z,2.57
2018-12-01T23:42:57.482Z,2.50
2018-12-01T23:45:26.638Z,2.40
2018-12-01T23:47:55.224Z,2.30
2018-12-01T23:50:27.413Z,2.60
2018-12-01T23:53:00.225Z,2.20
2018-12-01T23:55:30.922Z,2.30
2018-12-01T23:58:01.550Z,2.33
